EGKA METAR and TAF | Updated Today

EGKA METAR

Shoreham Airport

Observation time: 65 min. ago

EGKA 291850Z 35001KT CAVOK 10/08 Q1007

Need help? Read our tutorial on how to read METARs or read the parsed version below.

Shoreham Airport (EGKA) METAR

  • Weather conditions on Thu, 29 Sep 2022 18:50:00 +0000 (65 min. ago):
  • Present conditions: Dry
  • Clouds: Clear skies
  • Visibility: Greater than 10 km
  • Wind: 350 degrees at 1 knots
  • Temperature: 10 celsius
  • Dew point: 8 celsius
  • Pressure: 1007 millibars
  • Remarks: None


Useful to know...

EGKA TAF

Shoreham Airport

TAF EGKA 291356Z 2915/2919 35007KT 9999 SCT045 PROB30 TEMPO 2917/2919 9000 -RA
Observation time: 5:59 hr. ago
Need help? Read our tutorial on how to read TAFs or read the parsed version below.

Parsed version of TAF for Shoreham Airport (EGKA)

  • From 29 September at 15:00 UTC, to day 29 of the month at 19:00 UTC
  • Clouds: Scattered at 1372 meters
  • Visibility: Greater than 10 km
  • Wind: 350 degrees at 7
  • Expected to arise temporarily, from 29 September at 17:00 UTC, to day 29 of the month at 19:00 UTC
    Probability of 30%
  • Visibility: 9000 meters
  • Other: Light rain